Muddy Gap, Wyoming
Current Conditions -  °F | °C
As of 9:53 AM on Friday 28 Nov 2014 (Local Time) from KRWL Reporting Station
Clear Clear  
Wind Chill: 42°   Ceiling: Unl
Heat Index: 49°   Visibility: 10mi
Dew Point: 14°   Wind: 20mph
Humidity: 25%   Direction: 250°WSW
Pressure: 30.01"   Gusts: NA
Location:  41.7532°N, 107.372°W
Report Text: KRWL 281653Z AUTO 25017KT 10SM CLR 09/M10 A3001 RMK AO2 PK WND 25028/1626 SLP124 T00941100
Loading
Personal Weather Stations






























Interactive Weather Map New forecast layout! Learn more

10-Day Weather Forecast

Advertisements
Track Severe Weather on mobile